sensor_id;sensor_type;location;lat;lon;timestamp;pressure;altitude;pressure_sealevel;temperature;humidity
20624;BME280;10471;42.736;23.346;2023-02-16T00:01:45;96878.09;;;-2.11;100.00
20624;BME280;10471;42.736;23.346;2023-02-16T00:04:36;96876.13;;;-2.17;100.00
20624;BME280;10471;42.736;23.346;2023-02-16T00:07:01;96879.03;;;-2.20;100.00
20624;BME280;10471;42.736;23.346;2023-02-16T00:09:27;96870.00;;;-2.24;100.00
20624;BME280;10471;42.736;23.346;2023-02-16T00:11:52;96869.03;;;-2.23;100.00
20624;BME280;10471;42.736;23.346;2023-02-16T00:14:37;96869.03;;;-2.23;100.00
20624;BME280;10471;42.736;23.346;2023-02-16T00:17:04;96869.38;;;-2.26;100.00
20624;BME280;10471;42.736;23.346;2023-02-16T00:19:40;96867.41;;;-2.24;100.00
20624;BME280;10471;42.736;23.346;2023-02-16T00:22:07;96862.59;;;-2.27;100.00
20624;BME280;10471;42.736;23.346;2023-02-16T00:24:33;96864.50;;;-2.29;100.00
20624;BME280;10471;42.736;23.346;2023-02-16T00:26:59;96863.88;;;-2.31;100.00
20624;BME280;10471;42.736;23.346;2023-02-16T00:29:31;96865.78;;;-2.33;100.00
20624;BME280;10471;42.736;23.346;2023-02-16T00:31:59;96865.13;;;-2.35;100.00
20624;BME280;10471;42.736;23.346;2023-02-16T00:36:52;96859.66;;;-2.40;100.00
20624;BME280;10471;42.736;23.346;2023-02-16T00:39:17;96868.69;;;-2.44;100.00
20624;BME280;10471;42.736;23.346;2023-02-16T00:41:43;96872.53;;;-2.48;100.00
20624;BME280;10471;42.736;23.346;2023-02-16T00:44:22;96869.97;;;-2.48;100.00
20624;BME280;10471;42.736;23.346;2023-02-16T00:46:51;96870.91;;;-2.57;100.00
20624;BME280;10471;42.736;23.346;2023-02-16T00:49:18;96871.38;;;-2.61;100.00
20624;BME280;10471;42.736;23.346;2023-02-16T00:51:44;96871.34;;;-2.69;100.00
20624;BME280;10471;42.736;23.346;2023-02-16T00:54:10;96872.47;;;-2.71;100.00
20624;BME280;10471;42.736;23.346;2023-02-16T00:56:36;96865.06;;;-2.74;100.00
20624;BME280;10471;42.736;23.346;2023-02-16T00:59:05;96874.72;;;-2.76;100.00
20624;BME280;10471;42.736;23.346;2023-02-16T01:01:32;96868.25;;;-2.80;100.00
20624;BME280;10471;42.736;23.346;2023-02-16T01:04:05;96868.59;;;-2.83;100.00
20624;BME280;10471;42.736;23.346;2023-02-16T01:06:31;96863.09;;;-2.80;100.00
20624;BME280;10471;42.736;23.346;2023-02-16T01:09:18;96852.78;;;-2.80;100.00
20624;BME280;10471;42.736;23.346;2023-02-16T01:12:06;96852.47;;;-2.85;100.00
20624;BME280;10471;42.736;23.346;2023-02-16T01:14:34;96849.09;;;-2.86;100.00
20624;BME280;10471;42.736;23.346;2023-02-16T01:16:59;96853.13;;;-2.83;100.00
20624;BME280;10471;42.736;23.346;2023-02-16T01:19:25;96857.94;;;-2.80;100.00
20624;BME280;10471;42.736;23.346;2023-02-16T01:21:50;96854.72;;;-2.82;100.00
20624;BME280;10471;42.736;23.346;2023-02-16T01:24:16;96848.75;;;-2.91;100.00
20624;BME280;10471;42.736;23.346;2023-02-16T01:26:45;96843.44;;;-2.89;100.00
20624;BME280;10471;42.736;23.346;2023-02-16T01:29:14;96841.16;;;-2.92;100.00
20624;BME280;10471;42.736;23.346;2023-02-16T01:31:41;96839.69;;;-2.95;100.00
20624;BME280;10471;42.736;23.346;2023-02-16T01:34:06;96842.44;;;-2.96;100.00
20624;BME280;10471;42.736;23.346;2023-02-16T01:36:35;96837.91;;;-3.02;100.00
20624;BME280;10471;42.736;23.346;2023-02-16T01:39:01;96834.97;;;-3.07;100.00
20624;BME280;10471;42.736;23.346;2023-02-16T01:41:43;96834.00;;;-3.14;100.00
20624;BME280;10471;42.736;23.346;2023-02-16T01:44:11;96830.59;;;-3.23;100.00
20624;BME280;10471;42.736;23.346;2023-02-16T01:49:12;96830.09;;;-3.26;100.00
20624;BME280;10471;42.736;23.346;2023-02-16T01:54:46;96828.63;;;-3.28;100.00
20624;BME280;10471;42.736;23.346;2023-02-16T02:00:04;96828.91;;;-3.31;100.00
20624;BME280;10471;42.736;23.346;2023-02-16T02:02:34;96823.94;;;-3.33;100.00
20624;BME280;10471;42.736;23.346;2023-02-16T02:05:26;96826.16;;;-3.38;100.00
20624;BME280;10471;42.736;23.346;2023-02-16T02:08:11;96824.53;;;-3.39;100.00
20624;BME280;10471;42.736;23.346;2023-02-16T02:10:53;96833.53;;;-3.43;100.00
20624;BME280;10471;42.736;23.346;2023-02-16T02:13:35;96827.44;;;-3.42;100.00
20624;BME280;10471;42.736;23.346;2023-02-16T02:16:04;96833.19;;;-3.48;100.00
20624;BME280;10471;42.736;23.346;2023-02-16T02:18:30;96835.25;;;-3.51;100.00
20624;BME280;10471;42.736;23.346;2023-02-16T02:40:07;96808.78;;;-3.94;100.00
20624;BME280;10471;42.736;23.346;2023-02-16T02:42:43;96830.63;;;-3.98;100.00
20624;BME280;10471;42.736;23.346;2023-02-16T02:45:35;96819.03;;;-4.02;100.00
20624;BME280;10471;42.736;23.346;2023-02-16T02:48:03;96824.47;;;-4.05;100.00
20624;BME280;10471;42.736;23.346;2023-02-16T02:50:53;96819.13;;;-4.12;100.00
20624;BME280;10471;42.736;23.346;2023-02-16T02:53:56;96830.53;;;-4.14;100.00
20624;BME280;10471;42.736;23.346;2023-02-16T02:59:45;96827.28;;;-4.16;100.00
20624;BME280;10471;42.736;23.346;2023-02-16T03:02:33;96825.38;;;-4.14;100.00
20624;BME280;10471;42.736;23.346;2023-02-16T03:05:01;96838.22;;;-4.14;100.00
20624;BME280;10471;42.736;23.346;2023-02-16T03:07:28;96834.03;;;-4.15;100.00
20624;BME280;10471;42.736;23.346;2023-02-16T03:10:18;96833.25;;;-4.16;100.00
20624;BME280;10471;42.736;23.346;2023-02-16T03:13:05;96830.81;;;-4.17;100.00
20624;BME280;10471;42.736;23.346;2023-02-16T03:15:34;96832.41;;;-4.16;100.00
20624;BME280;10471;42.736;23.346;2023-02-16T03:18:01;96832.41;;;-4.16;100.00
20624;BME280;10471;42.736;23.346;2023-02-16T03:20:46;96839.19;;;-4.15;100.00
20624;BME280;10471;42.736;23.346;2023-02-16T03:23:30;96835.22;;;-4.10;100.00
20624;BME280;10471;42.736;23.346;2023-02-16T03:26:16;96832.03;;;-4.04;100.00
20624;BME280;10471;42.736;23.346;2023-02-16T03:29:01;96823.72;;;-3.98;100.00
20624;BME280;10471;42.736;23.346;2023-02-16T03:31:44;96831.94;;;-3.94;100.00
20624;BME280;10471;42.736;23.346;2023-02-16T03:34:10;96819.44;;;-3.90;100.00
20624;BME280;10471;42.736;23.346;2023-02-16T03:36:41;96820.75;;;-3.86;100.00
20624;BME280;10471;42.736;23.346;2023-02-16T03:39:08;96826.91;;;-3.79;100.00
20624;BME280;10471;42.736;23.346;2023-02-16T03:41:40;96818.75;;;-3.74;100.00
20624;BME280;10471;42.736;23.346;2023-02-16T03:44:06;96823.88;;;-3.74;100.00
20624;BME280;10471;42.736;23.346;2023-02-16T03:46:32;96817.97;;;-3.67;100.00
20624;BME280;10471;42.736;23.346;2023-02-16T03:48:57;96817.66;;;-3.64;100.00
20624;BME280;10471;42.736;23.346;2023-02-16T03:51:23;96824.09;;;-3.60;100.00
20624;BME280;10471;42.736;23.346;2023-02-16T03:53:48;96819.63;;;-3.58;100.00
20624;BME280;10471;42.736;23.346;2023-02-16T03:56:14;96818.34;;;-3.54;100.00
20624;BME280;10471;42.736;23.346;2023-02-16T03:58:40;96820.47;;;-3.49;100.00
20624;BME280;10471;42.736;23.346;2023-02-16T04:01:05;96818.41;;;-3.46;100.00
20624;BME280;10471;42.736;23.346;2023-02-16T04:03:30;96815.84;;;-3.46;100.00
20624;BME280;10471;42.736;23.346;2023-02-16T04:05:56;96814.88;;;-3.45;100.00
20624;BME280;10471;42.736;23.346;2023-02-16T04:08:21;96804.09;;;-3.40;100.00
20624;BME280;10471;42.736;23.346;2023-02-16T04:10:47;96810.41;;;-3.35;100.00
20624;BME280;10471;42.736;23.346;2023-02-16T04:13:12;96806.56;;;-3.31;100.00
20624;BME280;10471;42.736;23.346;2023-02-16T04:15:38;96804.94;;;-3.32;100.00
20624;BME280;10471;42.736;23.346;2023-02-16T04:18:03;96795.94;;;-3.28;100.00
20624;BME280;10471;42.736;23.346;2023-02-16T04:20:31;96801.28;;;-3.22;100.00
20624;BME280;10471;42.736;23.346;2023-02-16T04:22:57;96800.47;;;-3.22;100.00
20624;BME280;10471;42.736;23.346;2023-02-16T04:25:23;96802.38;;;-3.24;100.00
20624;BME280;10471;42.736;23.346;2023-02-16T04:27:49;96797.38;;;-3.26;100.00
20624;BME280;10471;42.736;23.346;2023-02-16T04:30:21;96792.41;;;-3.27;100.00
20624;BME280;10471;42.736;23.346;2023-02-16T04:32:47;96792.91;;;-3.24;100.00
20624;BME280;10471;42.736;23.346;2023-02-16T04:35:12;96797.56;;;-3.27;100.00
20624;BME280;10471;42.736;23.346;2023-02-16T04:37:38;96797.22;;;-3.32;100.00
20624;BME280;10471;42.736;23.346;2023-02-16T04:40:04;96796.53;;;-3.34;100.00
20624;BME280;10471;42.736;23.346;2023-02-16T04:42:30;96807.19;;;-3.37;100.00
20624;BME280;10471;42.736;23.346;2023-02-16T04:44:55;96798.00;;;-3.39;100.00
20624;BME280;10471;42.736;23.346;2023-02-16T04:47:21;96804.25;;;-3.42;100.00
20624;BME280;10471;42.736;23.346;2023-02-16T04:49:50;96812.31;;;-3.45;100.00
20624;BME280;10471;42.736;23.346;2023-02-16T04:52:16;96803.75;;;-3.45;100.00
20624;BME280;10471;42.736;23.346;2023-02-16T04:54:41;96812.56;;;-3.56;100.00
20624;BME280;10471;42.736;23.346;2023-02-16T04:57:07;96811.72;;;-3.64;100.00
20624;BME280;10471;42.736;23.346;2023-02-16T04:59:33;96814.91;;;-3.70;100.00
20624;BME280;10471;42.736;23.346;2023-02-16T05:01:58;96808.91;;;-3.71;100.00
20624;BME280;10471;42.736;23.346;2023-02-16T05:04:24;96814.28;;;-3.90;100.00
20624;BME280;10471;42.736;23.346;2023-02-16T05:06:50;96814.59;;;-3.92;100.00
20624;BME280;10471;42.736;23.346;2023-02-16T05:09:15;96820.25;;;-3.89;100.00
20624;BME280;10471;42.736;23.346;2023-02-16T05:11:40;96822.97;;;-3.91;100.00
20624;BME280;10471;42.736;23.346;2023-02-16T05:14:28;96829.03;;;-3.99;100.00
20624;BME280;10471;42.736;23.346;2023-02-16T05:17:07;96821.69;;;-4.12;100.00
20624;BME280;10471;42.736;23.346;2023-02-16T05:19:33;96822.13;;;-4.16;100.00
20624;BME280;10471;42.736;23.346;2023-02-16T05:21:58;96828.19;;;-4.25;100.00
20624;BME280;10471;42.736;23.346;2023-02-16T05:24:23;96821.41;;;-4.26;100.00
20624;BME280;10471;42.736;23.346;2023-02-16T05:26:49;96827.66;;;-4.29;100.00
20624;BME280;10471;42.736;23.346;2023-02-16T05:29:14;96832.38;;;-4.24;100.00
20624;BME280;10471;42.736;23.346;2023-02-16T05:31:40;96836.63;;;-4.15;100.00
20624;BME280;10471;42.736;23.346;2023-02-16T05:34:05;96835.66;;;-4.14;100.00
20624;BME280;10471;42.736;23.346;2023-02-16T05:36:30;96837.13;;;-4.12;100.00
20624;BME280;10471;42.736;23.346;2023-02-16T05:38:56;96836.38;;;-4.04;100.00
20624;BME280;10471;42.736;23.346;2023-02-16T05:41:21;96843.00;;;-4.02;100.00
20624;BME280;10471;42.736;23.346;2023-02-16T05:43:57;96845.72;;;-4.03;100.00
20624;BME280;10471;42.736;23.346;2023-02-16T05:46:23;96842.31;;;-4.04;100.00
20624;BME280;10471;42.736;23.346;2023-02-16T05:48:49;96846.34;;;-4.01;100.00
20624;BME280;10471;42.736;23.346;2023-02-16T05:51:15;96853.44;;;-4.03;100.00
20624;BME280;10471;42.736;23.346;2023-02-16T05:53:41;96852.63;;;-4.04;100.00
20624;BME280;10471;42.736;23.346;2023-02-16T05:56:07;96848.66;;;-3.98;100.00
20624;BME280;10471;42.736;23.346;2023-02-16T05:58:32;96846.88;;;-3.98;100.00
20624;BME280;10471;42.736;23.346;2023-02-16T06:00:58;96848.66;;;-3.98;100.00
20624;BME280;10471;42.736;23.346;2023-02-16T06:03:24;96852.75;;;-4.05;100.00
20624;BME280;10471;42.736;23.346;2023-02-16T06:05:54;96862.63;;;-4.01;100.00
20624;BME280;10471;42.736;23.346;2023-02-16T06:08:20;96855.81;;;-4.10;100.00
20624;BME280;10471;42.736;23.346;2023-02-16T06:10:48;96863.22;;;-4.07;100.00
20624;BME280;10471;42.736;23.346;2023-02-16T06:13:14;96856.88;;;-3.95;100.00
20624;BME280;10471;42.736;23.346;2023-02-16T06:15:40;96860.91;;;-3.92;100.00
20624;BME280;10471;42.736;23.346;2023-02-16T06:18:05;96868.84;;;-3.86;100.00
20624;BME280;10471;42.736;23.346;2023-02-16T06:20:31;96874.41;;;-3.91;100.00
20624;BME280;10471;42.736;23.346;2023-02-16T06:22:56;96867.88;;;-3.85;100.00
20624;BME280;10471;42.736;23.346;2023-02-16T06:25:21;96873.22;;;-3.79;100.00
20624;BME280;10471;42.736;23.346;2023-02-16T06:27:47;96879.53;;;-3.73;100.00
20624;BME280;10471;42.736;23.346;2023-02-16T06:30:14;96880.72;;;-3.68;100.00
20624;BME280;10471;42.736;23.346;2023-02-16T06:32:39;96876.34;;;-3.67;100.00
20624;BME280;10471;42.736;23.346;2023-02-16T06:35:05;96877.06;;;-3.57;100.00
20624;BME280;10471;42.736;23.346;2023-02-16T06:37:30;96882.56;;;-3.52;100.00
20624;BME280;10471;42.736;23.346;2023-02-16T06:39:56;96879.88;;;-3.51;100.00
20624;BME280;10471;42.736;23.346;2023-02-16T06:42:21;96875.75;;;-3.36;100.00
20624;BME280;10471;42.736;23.346;2023-02-16T06:44:46;96874.84;;;-3.27;100.00
20624;BME280;10471;42.736;23.346;2023-02-16T06:47:12;96880.16;;;-3.21;100.00
20624;BME280;10471;42.736;23.346;2023-02-16T06:49:38;96878.44;;;-3.12;100.00
20624;BME280;10471;42.736;23.346;2023-02-16T06:52:03;96880.75;;;-3.01;100.00
20624;BME280;10471;42.736;23.346;2023-02-16T06:54:29;96875.00;;;-2.87;100.00
20624;BME280;10471;42.736;23.346;2023-02-16T06:56:54;96877.16;;;-2.75;100.00
20624;BME280;10471;42.736;23.346;2023-02-16T06:59:20;96875.09;;;-2.63;100.00
20624;BME280;10471;42.736;23.346;2023-02-16T07:01:45;96875.75;;;-2.54;100.00
20624;BME280;10471;42.736;23.346;2023-02-16T07:04:11;96872.72;;;-2.49;100.00
20624;BME280;10471;42.736;23.346;2023-02-16T07:06:36;96872.22;;;-2.45;100.00
20624;BME280;10471;42.736;23.346;2023-02-16T07:09:02;96868.38;;;-2.33;100.00
20624;BME280;10471;42.736;23.346;2023-02-16T07:11:28;96859.50;;;-2.22;100.00
20624;BME280;10471;42.736;23.346;2023-02-16T07:13:53;96864.53;;;-2.13;100.00
20624;BME280;10471;42.736;23.346;2023-02-16T07:16:19;96863.88;;;-2.07;100.00
20624;BME280;10471;42.736;23.346;2023-02-16T07:18:44;96858.72;;;-1.99;100.00
20624;BME280;10471;42.736;23.346;2023-02-16T07:21:10;96859.38;;;-1.97;100.00
20624;BME280;10471;42.736;23.346;2023-02-16T07:23:36;96853.22;;;-1.88;100.00
20624;BME280;10471;42.736;23.346;2023-02-16T07:26:01;96850.31;;;-1.77;100.00
20624;BME280;10471;42.736;23.346;2023-02-16T07:28:27;96850.94;;;-1.67;100.00
20624;BME280;10471;42.736;23.346;2023-02-16T07:30:52;96853.19;;;-1.56;100.00
20624;BME280;10471;42.736;23.346;2023-02-16T07:33:18;96849.00;;;-1.49;100.00
20624;BME280;10471;42.736;23.346;2023-02-16T07:35:43;96847.69;;;-1.37;100.00
20624;BME280;10471;42.736;23.346;2023-02-16T07:38:09;96849.88;;;-1.27;100.00
20624;BME280;10471;42.736;23.346;2023-02-16T07:40:35;96841.94;;;-1.17;100.00
20624;BME280;10471;42.736;23.346;2023-02-16T07:43:02;96842.72;;;-1.09;100.00
20624;BME280;10471;42.736;23.346;2023-02-16T07:45:28;96850.78;;;-1.04;100.00
20624;BME280;10471;42.736;23.346;2023-02-16T07:47:54;96848.16;;;-0.96;100.00
20624;BME280;10471;42.736;23.346;2023-02-16T07:50:19;96849.75;;;-0.87;100.00
20624;BME280;10471;42.736;23.346;2023-02-16T07:52:45;96845.34;;;-0.78;100.00
20624;BME280;10471;42.736;23.346;2023-02-16T07:55:10;96845.47;;;-0.72;100.00
20624;BME280;10471;42.736;23.346;2023-02-16T07:57:38;96846.06;;;-0.62;100.00
20624;BME280;10471;42.736;23.346;2023-02-16T08:00:05;96843.41;;;-0.54;100.00
20624;BME280;10471;42.736;23.346;2023-02-16T08:02:32;96843.09;;;-0.51;100.00
20624;BME280;10471;42.736;23.346;2023-02-16T08:04:58;96849.31;;;-0.38;100.00
20624;BME280;10471;42.736;23.346;2023-02-16T08:07:23;96843.38;;;-0.24;100.00
20624;BME280;10471;42.736;23.346;2023-02-16T08:09:49;96841.28;;;-0.20;100.00
20624;BME280;10471;42.736;23.346;2023-02-16T08:12:15;96844.53;;;-0.04;100.00
20624;BME280;10471;42.736;23.346;2023-02-16T08:14:41;96850.13;;;0.07;100.00
20624;BME280;10471;42.736;23.346;2023-02-16T08:17:07;96850.16;;;0.22;100.00
20624;BME280;10471;42.736;23.346;2023-02-16T08:19:33;96850.19;;;0.36;100.00
20624;BME280;10471;42.736;23.346;2023-02-16T08:21:59;96853.97;;;0.48;100.00
20624;BME280;10471;42.736;23.346;2023-02-16T08:24:27;96859.44;;;0.53;100.00
20624;BME280;10471;42.736;23.346;2023-02-16T08:26:53;96854.78;;;0.63;100.00
20624;BME280;10471;42.736;23.346;2023-02-16T08:29:20;96858.19;;;0.78;100.00
20624;BME280;10471;42.736;23.346;2023-02-16T08:31:46;96857.69;;;0.82;100.00
20624;BME280;10471;42.736;23.346;2023-02-16T08:34:14;96853.81;;;0.93;100.00
20624;BME280;10471;42.736;23.346;2023-02-16T08:36:42;96854.00;;;1.06;100.00
20624;BME280;10471;42.736;23.346;2023-02-16T08:39:17;96854.50;;;1.30;100.00
20624;BME280;10471;42.736;23.346;2023-02-16T08:41:44;96849.66;;;1.41;100.00
20624;BME280;10471;42.736;23.346;2023-02-16T08:44:11;96850.25;;;1.58;100.00
20624;BME280;10471;42.736;23.346;2023-02-16T08:46:38;96853.25;;;1.76;100.00
20624;BME280;10471;42.736;23.346;2023-02-16T08:49:06;96850.56;;;1.90;100.00
20624;BME280;10471;42.736;23.346;2023-02-16T08:51:34;96848.47;;;2.00;100.00
20624;BME280;10471;42.736;23.346;2023-02-16T08:54:00;96849.59;;;2.12;100.00
20624;BME280;10471;42.736;23.346;2023-02-16T08:56:27;96848.53;;;2.27;100.00
20624;BME280;10471;42.736;23.346;2023-02-16T08:58:54;96851.47;;;2.45;100.00
20624;BME280;10471;42.736;23.346;2023-02-16T09:01:19;96842.50;;;2.48;100.00
20624;BME280;10471;42.736;23.346;2023-02-16T09:03:46;96842.41;;;2.62;100.00
20624;BME280;10471;42.736;23.346;2023-02-16T09:06:15;96837.47;;;2.73;100.00
20624;BME280;10471;42.736;23.346;2023-02-16T09:08:41;96845.38;;;2.86;100.00
20624;BME280;10471;42.736;23.346;2023-02-16T09:11:12;96843.81;;;2.98;100.00
20624;BME280;10471;42.736;23.346;2023-02-16T09:13:38;96839.69;;;3.10;100.00
20624;BME280;10471;42.736;23.346;2023-02-16T09:16:07;96846.31;;;3.13;100.00
20624;BME280;10471;42.736;23.346;2023-02-16T09:18:35;96837.59;;;3.26;100.00
20624;BME280;10471;42.736;23.346;2023-02-16T09:21:10;96838.63;;;3.45;100.00
20624;BME280;10471;42.736;23.346;2023-02-16T09:23:36;96830.88;;;3.58;100.00
20624;BME280;10471;42.736;23.346;2023-02-16T09:26:02;96841.31;;;3.64;100.00
20624;BME280;10471;42.736;23.346;2023-02-16T09:28:31;96835.75;;;3.74;100.00
20624;BME280;10471;42.736;23.346;2023-02-16T09:30:57;96837.38;;;3.88;100.00
20624;BME280;10471;42.736;23.346;2023-02-16T09:33:23;96827.56;;;3.89;100.00
20624;BME280;10471;42.736;23.346;2023-02-16T09:35:49;96836.00;;;4.04;100.00
20624;BME280;10471;42.736;23.346;2023-02-16T09:38:15;96836.22;;;4.16;100.00
20624;BME280;10471;42.736;23.346;2023-02-16T09:40:43;96837.84;;;4.30;100.00
20624;BME280;10471;42.736;23.346;2023-02-16T09:43:33;96821.81;;;4.46;100.00
20624;BME280;10471;42.736;23.346;2023-02-16T09:46:03;96818.97;;;4.47;100.00
20624;BME280;10471;42.736;23.346;2023-02-16T09:48:50;96818.16;;;4.59;100.00
20624;BME280;10471;42.736;23.346;2023-02-16T09:51:23;96810.50;;;4.71;100.00
20624;BME280;10471;42.736;23.346;2023-02-16T09:53:54;96799.50;;;4.69;100.00
20624;BME280;10471;42.736;23.346;2023-02-16T09:56:35;96794.28;;;4.69;100.00
20624;BME280;10471;42.736;23.346;2023-02-16T10:07:39;96785.44;;;5.26;100.00
20624;BME280;10471;42.736;23.346;2023-02-16T10:10:14;96783.97;;;5.43;100.00
20624;BME280;10471;42.736;23.346;2023-02-16T10:12:45;96783.66;;;5.64;100.00
20624;BME280;10471;42.736;23.346;2023-02-16T10:15:19;96772.63;;;5.62;100.00
20624;BME280;10471;42.736;23.346;2023-02-16T10:17:52;96772.59;;;5.69;100.00
20624;BME280;10471;42.736;23.346;2023-02-16T10:20:30;96769.31;;;5.73;100.00
20624;BME280;10471;42.736;23.346;2023-02-16T10:25:39;96763.09;;;5.74;100.00
20624;BME280;10471;42.736;23.346;2023-02-16T10:28:18;96756.47;;;5.78;100.00
20624;BME280;10471;42.736;23.346;2023-02-16T10:30:49;96757.38;;;5.90;100.00
20624;BME280;10471;42.736;23.346;2023-02-16T10:36:00;96748.97;;;6.37;100.00
20624;BME280;10471;42.736;23.346;2023-02-16T10:38:35;96745.22;;;6.51;100.00
20624;BME280;10471;42.736;23.346;2023-02-16T10:41:19;96742.13;;;6.78;100.00
20624;BME280;10471;42.736;23.346;2023-02-16T10:44:02;96742.34;;;6.94;100.00
20624;BME280;10471;42.736;23.346;2023-02-16T10:46:39;96732.88;;;7.11;96.54
20624;BME280;10471;42.736;23.346;2023-02-16T10:49:10;96734.19;;;7.20;96.21
20624;BME280;10471;42.736;23.346;2023-02-16T10:51:37;96733.16;;;7.21;94.52
20624;BME280;10471;42.736;23.346;2023-02-16T10:54:11;96728.97;;;7.31;94.59
20624;BME280;10471;42.736;23.346;2023-02-16T10:56:46;96708.22;;;7.48;97.87
20624;BME280;10471;42.736;23.346;2023-02-16T10:59:20;96720.00;;;7.68;93.99
20624;BME280;10471;42.736;23.346;2023-02-16T11:01:49;96717.34;;;7.86;92.86
20624;BME280;10471;42.736;23.346;2023-02-16T11:07:09;96709.66;;;8.37;94.03
20624;BME280;10471;42.736;23.346;2023-02-16T11:09:37;96702.03;;;8.58;92.49
20624;BME280;10471;42.736;23.346;2023-02-16T11:18:02;96690.75;;;8.97;83.32
20624;BME280;10471;42.736;23.346;2023-02-16T11:23:37;96686.53;;;9.35;76.80
20624;BME280;10471;42.736;23.346;2023-02-16T11:26:23;96681.44;;;9.45;75.56
20624;BME280;10471;42.736;23.346;2023-02-16T11:28:50;96675.75;;;9.64;76.26
20624;BME280;10471;42.736;23.346;2023-02-16T11:31:38;96669.22;;;9.83;74.42
20624;BME280;10471;42.736;23.346;2023-02-16T11:36:47;96666.00;;;10.09;68.35
20624;BME280;10471;42.736;23.346;2023-02-16T11:42:59;96657.06;;;10.43;68.46
20624;BME280;10471;42.736;23.346;2023-02-16T11:44:54;96654.59;;;10.36;64.78
20624;BME280;10471;42.736;23.346;2023-02-16T11:47:22;96655.13;;;10.54;66.61
20624;BME280;10471;42.736;23.346;2023-02-16T11:49:51;96655.38;;;10.74;64.84
20624;BME280;10471;42.736;23.346;2023-02-16T11:52:29;96648.28;;;10.96;61.59
20624;BME280;10471;42.736;23.346;2023-02-16T11:54:58;96643.13;;;11.06;60.16
20624;BME280;10471;42.736;23.346;2023-02-16T11:57:28;96644.84;;;11.17;59.51
20624;BME280;10471;42.736;23.346;2023-02-16T11:59:54;96639.72;;;11.32;57.17
20624;BME280;10471;42.736;23.346;2023-02-16T12:08:16;96637.41;;;11.62;54.34
20624;BME280;10471;42.736;23.346;2023-02-16T12:13:50;96623.53;;;11.23;51.47
20624;BME280;10471;42.736;23.346;2023-02-16T12:37:59;96582.09;;;12.59;48.06
20624;BME280;10471;42.736;23.346;2023-02-16T12:43:36;96570.44;;;13.11;46.80
20624;BME280;10471;42.736;23.346;2023-02-16T12:46:09;96568.06;;;13.19;47.18
20624;BME280;10471;42.736;23.346;2023-02-16T12:51:36;96558.03;;;13.36;45.53
20624;BME280;10471;42.736;23.346;2023-02-16T12:57:12;96554.88;;;13.74;45.42
20624;BME280;10471;42.736;23.346;2023-02-16T12:59:58;96548.53;;;13.80;44.51
20624;BME280;10471;42.736;23.346;2023-02-16T13:02:35;96551.16;;;13.85;44.72
20624;BME280;10471;42.736;23.346;2023-02-16T13:10:21;96541.63;;;13.89;44.01
20624;BME280;10471;42.736;23.346;2023-02-16T13:15:22;96536.31;;;13.99;44.07
20624;BME280;10471;42.736;23.346;2023-02-16T13:17:56;96535.78;;;14.02;43.19
20624;BME280;10471;42.736;23.346;2023-02-16T13:20:22;96531.03;;;13.79;43.73
20624;BME280;10471;42.736;23.346;2023-02-16T13:44:27;96513.72;;;14.41;42.93
20624;BME280;10471;42.736;23.346;2023-02-16T13:46:56;96509.16;;;14.51;42.32
20624;BME280;10471;42.736;23.346;2023-02-16T13:49:29;96506.47;;;14.61;42.09
20624;BME280;10471;42.736;23.346;2023-02-16T13:51:57;96499.84;;;14.59;41.70
20624;BME280;10471;42.736;23.346;2023-02-16T13:56:52;96493.94;;;14.77;42.23
20624;BME280;10471;42.736;23.346;2023-02-16T14:01:45;96497.09;;;14.79;41.61
20624;BME280;10471;42.736;23.346;2023-02-16T14:12:26;96494.56;;;15.02;41.13
20624;BME280;10471;42.736;23.346;2023-02-16T14:19:59;96485.31;;;14.95;41.11
20624;BME280;10471;42.736;23.346;2023-02-16T14:22:58;96490.41;;;14.86;41.04
20624;BME280;10471;42.736;23.346;2023-02-16T14:25:33;96479.53;;;14.93;41.31
20624;BME280;10471;42.736;23.346;2023-02-16T14:30:55;96481.13;;;14.84;41.24
20624;BME280;10471;42.736;23.346;2023-02-16T14:36:21;96485.25;;;14.61;41.34
20624;BME280;10471;42.736;23.346;2023-02-16T14:38:51;96482.34;;;14.58;41.77
20624;BME280;10471;42.736;23.346;2023-02-16T14:44:30;96481.00;;;14.55;41.60
20624;BME280;10471;42.736;23.346;2023-02-16T14:47:17;96485.34;;;14.42;42.43
20624;BME280;10471;42.736;23.346;2023-02-16T14:50:05;96476.91;;;14.20;42.63
20624;BME280;10471;42.736;23.346;2023-02-16T14:59:05;96475.16;;;13.61;43.64
20624;BME280;10471;42.736;23.346;2023-02-16T15:01:44;96471.72;;;13.55;44.00
20624;BME280;10471;42.736;23.346;2023-02-16T15:04:10;96470.63;;;13.51;43.50
20624;BME280;10471;42.736;23.346;2023-02-16T15:06:41;96472.78;;;13.49;43.96
20624;BME280;10471;42.736;23.346;2023-02-16T15:09:21;96475.44;;;13.44;44.38
20624;BME280;10471;42.736;23.346;2023-02-16T15:11:50;96465.34;;;13.31;43.67
20624;BME280;10471;42.736;23.346;2023-02-16T15:14:40;96474.91;;;13.27;44.11
20624;BME280;10471;42.736;23.346;2023-02-16T15:17:07;96468.81;;;13.17;44.20
20624;BME280;10471;42.736;23.346;2023-02-16T15:19:34;96474.34;;;13.10;44.46
20624;BME280;10471;42.736;23.346;2023-02-16T15:22:26;96476.97;;;13.01;44.63
20624;BME280;10471;42.736;23.346;2023-02-16T15:24:58;96472.72;;;12.90;44.91
20624;BME280;10471;42.736;23.346;2023-02-16T15:27:24;96476.91;;;12.76;45.27
20624;BME280;10471;42.736;23.346;2023-02-16T15:33:06;96471.53;;;12.51;45.80
20624;BME280;10471;42.736;23.346;2023-02-16T15:35:42;96469.38;;;12.38;45.91
20624;BME280;10471;42.736;23.346;2023-02-16T15:40:36;96476.13;;;12.09;47.43
20624;BME280;10471;42.736;23.346;2023-02-16T15:43:30;96471.22;;;11.86;48.00
20624;BME280;10471;42.736;23.346;2023-02-16T15:45:57;96473.59;;;11.83;48.23
20624;BME280;10471;42.736;23.346;2023-02-16T15:48:34;96464.25;;;11.71;48.79
20624;BME280;10471;42.736;23.346;2023-02-16T15:53:54;96474.25;;;11.32;49.75
20624;BME280;10471;42.736;23.346;2023-02-16T15:56:24;96473.97;;;11.29;50.48